Terminal Aerodrome Forecast
Issued by NWS

Home | Current Version | Previous Version | Text Only | Print | Product List | Glossary On
Versions: 1 2 3 4 5 6 7 8 9 10 11 12 13 14 15 16
000
FTUS43 KMPX 221700
TAFRNH
TAF
KRNH 221739Z 2218/2318 26007KT P6SM SKC
     FM230000 20004KT P6SM SKC
     FM230800 VRB02KT 2SM BR SKC
      TEMPO 2309/2313 1SM BR VV005
     FM231400 18006KT P6SM SKC=

USA.gov is the U.S. government's official web portal to all federal, state and local government web resources and services.